createdAt,value
2022-11-01T00:01:39.796Z,97637.63
2022-11-01T00:04:06.080Z,97630.16
2022-11-01T00:06:32.373Z,97640.25
2022-11-01T00:08:58.854Z,97631.69
2022-11-01T00:11:25.207Z,97631.69
2022-11-01T00:13:51.798Z,97626.88
2022-11-01T00:16:18.834Z,97623.41
2022-11-01T00:18:45.137Z,97627.41
2022-11-01T00:21:11.442Z,97626.06
2022-11-01T00:23:39.705Z,97628.19
2022-11-01T00:26:06.973Z,97634.63
2022-11-01T00:28:33.687Z,97620.97
2022-11-01T00:31:00.090Z,97628.44
2022-11-01T00:33:27.397Z,97616.63
2022-11-01T00:35:53.678Z,97624.13
2022-11-01T00:38:19.935Z,97620.91
2022-11-01T00:40:46.283Z,97625.72
2022-11-01T00:43:13.280Z,97618.22
2022-11-01T00:45:39.686Z,97628.91
2022-11-01T00:48:06.006Z,97625.44
2022-11-01T00:50:34.535Z,97619.25
2022-11-01T00:53:00.932Z,97618.72
2022-11-01T00:55:28.004Z,97618.72
2022-11-01T00:57:54.303Z,97621.91
2022-11-01T01:00:21.245Z,97611.22
2022-11-01T01:02:47.657Z,97612.31
2022-11-01T01:05:14.239Z,97606.41
2022-11-01T01:07:40.840Z,97606.66
2022-11-01T01:10:07.307Z,97606.13
2022-11-01T01:12:33.673Z,97583.31
2022-11-01T01:15:01.139Z,97594.06
2022-11-01T01:17:29.987Z,97594.59
2022-11-01T01:19:59.202Z,97592.97
2022-11-01T01:22:25.503Z,97584.41
2022-11-01T01:24:52.722Z,97584.41
2022-11-01T01:27:18.967Z,97582.00
2022-11-01T01:29:45.537Z,97577.97
2022-11-01T01:32:12.051Z,97576.38
2022-11-01T01:34:38.632Z,97570.47
2022-11-01T01:37:04.957Z,97569.94
2022-11-01T01:39:31.302Z,97569.38
2022-11-01T01:41:57.603Z,97565.13
2022-11-01T01:44:24.362Z,97559.22
2022-11-01T01:46:50.762Z,97554.91
2022-11-01T01:49:19.986Z,97563.47
2022-11-01T01:51:46.328Z,97546.03
2022-11-01T01:54:12.630Z,97550.63
2022-11-01T01:56:38.990Z,97552.75
2022-11-01T01:59:05.320Z,97550.06
2022-11-01T02:01:32.300Z,97549.53
2022-11-01T02:03:58.637Z,97555.13
2022-11-01T02:06:25.542Z,97550.03
2022-11-01T02:08:52.028Z,97549.50
2022-11-01T02:11:18.293Z,97543.59
2022-11-01T02:13:45.145Z,97537.44
2022-11-01T02:16:11.489Z,97539.59
2022-11-01T02:18:37.810Z,97540.63
2022-11-01T02:21:04.077Z,97534.72
2022-11-01T02:23:30.358Z,97549.97
2022-11-01T02:25:56.843Z,97543.81
2022-11-01T02:28:23.143Z,97549.41
2022-11-01T02:30:49.455Z,97549.66
2022-11-01T02:33:16.225Z,97554.19
2022-11-01T02:35:42.561Z,97542.97
2022-11-01T02:38:08.857Z,97544.81
2022-11-01T02:40:35.112Z,97548.56
2022-11-01T02:43:01.755Z,97546.16
2022-11-01T02:45:29.072Z,97544.53
2022-11-01T02:47:55.453Z,97543.75
2022-11-01T02:50:21.722Z,97543.75
2022-11-01T02:52:48.055Z,97549.88
2022-11-01T02:55:14.313Z,97537.59
2022-11-01T02:57:40.595Z,97542.94
2022-11-01T03:00:06.868Z,97534.91
2022-11-01T03:02:33.139Z,97531.16
2022-11-01T03:04:59.735Z,97534.91
2022-11-01T03:07:26.400Z,97528.75
2022-11-01T03:09:52.729Z,97529.03
2022-11-01T03:12:19.045Z,97505.00
2022-11-01T03:14:45.364Z,97507.66
2022-11-01T03:17:13.157Z,97502.31
2022-11-01T03:19:39.553Z,97499.38
2022-11-01T03:22:05.824Z,97503.69
2022-11-01T03:24:33.302Z,97508.22
2022-11-01T03:26:59.836Z,97516.22
2022-11-01T03:29:26.148Z,97526.66
2022-11-01T03:31:52.535Z,97561.09
2022-11-01T03:34:19.052Z,97542.41
2022-11-01T03:36:45.316Z,97537.88
2022-11-01T03:39:11.712Z,97542.16
2022-11-01T03:41:38.363Z,97548.03
2022-11-01T03:44:04.650Z,97546.44
2022-11-01T03:46:31.011Z,97534.69
2022-11-01T03:48:57.329Z,97540.84
2022-11-01T03:51:23.574Z,97534.44
2022-11-01T03:53:49.863Z,97534.44
2022-11-01T03:56:16.997Z,97539.50
2022-11-01T03:58:43.337Z,97536.59
2022-11-01T04:01:09.826Z,97543.81
2022-11-01T04:03:36.164Z,97539.50
2022-11-01T04:06:02.987Z,97538.47
2022-11-01T04:08:29.707Z,97544.06
2022-11-01T04:10:56.055Z,97545.91
2022-11-01T04:13:22.444Z,97551.25
2022-11-01T04:15:48.784Z,97544.31
2022-11-01T04:18:18.227Z,97550.44
2022-11-01T04:20:44.527Z,97549.41
2022-11-01T04:23:10.961Z,97563.31
2022-11-01T04:25:38.130Z,97555.31
2022-11-01T04:28:04.409Z,97569.44
2022-11-01T04:30:30.725Z,97560.66
2022-11-01T04:32:57.028Z,97560.09
2022-11-01T04:35:23.410Z,97560.09
2022-11-01T04:37:49.745Z,97569.69
2022-11-01T04:40:16.760Z,97570.78
2022-11-01T04:42:43.480Z,97573.44
2022-11-01T04:45:09.800Z,97575.03
2022-11-01T04:47:36.124Z,97580.38
2022-11-01T04:50:02.379Z,97581.19
2022-11-01T04:52:28.770Z,97580.38
2022-11-01T04:54:55.122Z,97574.22
2022-11-01T04:57:21.412Z,97586.53
2022-11-01T04:59:47.818Z,97591.06
2022-11-01T05:02:14.156Z,97595.59
2022-11-01T05:04:40.458Z,97604.69
2022-11-01T05:07:07.121Z,97610.03
2022-11-01T05:09:33.437Z,97615.63
2022-11-01T05:11:59.831Z,97616.44
2022-11-01T05:14:26.664Z,97614.56
2022-11-01T05:16:52.929Z,97619.13
2022-11-01T05:19:19.295Z,97607.63
2022-11-01T05:21:46.330Z,97596.94
2022-11-01T05:24:12.590Z,97606.81
2022-11-01T05:26:38.878Z,97612.97
2022-11-01T05:29:09.013Z,97608.66
2022-11-01T05:31:40.896Z,97597.34
2022-11-01T05:34:07.186Z,97615.09
2022-11-01T05:36:33.521Z,97618.81
2022-11-01T05:38:59.821Z,97620.69
2022-11-01T05:41:26.137Z,97624.16
2022-11-01T05:43:52.614Z,97626.03
2022-11-01T05:46:19.282Z,97621.72
2022-11-01T05:48:45.638Z,97614.53
2022-11-01T05:51:12.404Z,97601.44
2022-11-01T05:53:38.677Z,97608.63
2022-11-01T05:56:04.993Z,97605.97
2022-11-01T05:58:31.286Z,97616.66
2022-11-01T06:00:58.036Z,97615.84
2022-11-01T06:03:24.680Z,97617.72
2022-11-01T06:05:51.531Z,97626.78
2022-11-01T06:08:18.398Z,97632.94
2022-11-01T06:10:44.680Z,97636.41
2022-11-01T06:13:11.022Z,97628.66
2022-11-01T06:15:39.634Z,97618.75
2022-11-01T06:18:06.468Z,97631.88
2022-11-01T06:20:32.907Z,97625.47
2022-11-01T06:22:59.164Z,97637.75
2022-11-01T06:25:25.528Z,97637.53
2022-11-01T06:27:51.818Z,97644.72
2022-11-01T06:30:18.458Z,97639.38
2022-11-01T06:32:44.711Z,97635.91
2022-11-01T06:35:10.981Z,97626.31
2022-11-01T06:37:37.355Z,97635.78
2022-11-01T06:40:03.621Z,97641.66
2022-11-01T06:42:29.933Z,97637.72
2022-11-01T06:44:56.216Z,97660.50
2022-11-01T06:47:25.578Z,97661.34
2022-11-01T06:49:51.860Z,97674.75
2022-11-01T06:52:18.145Z,97658.75
2022-11-01T06:54:44.421Z,97659.84
2022-11-01T06:57:11.517Z,97663.59
2022-11-01T06:59:37.811Z,97669.50
2022-11-01T07:02:04.226Z,97671.41
2022-11-01T07:04:30.938Z,97668.75
2022-11-01T07:06:58.138Z,97671.72
2022-11-01T07:09:24.423Z,97674.69
2022-11-01T07:11:50.697Z,97681.38
2022-11-01T07:14:17.011Z,97694.22
2022-11-01T07:16:43.551Z,97704.41
2022-11-01T07:19:09.855Z,97704.97
2022-11-01T07:21:36.297Z,97701.22
2022-11-01T07:24:02.968Z,97705.25
2022-11-01T07:26:29.366Z,97703.09
2022-11-01T07:28:55.709Z,97711.41
2022-11-01T07:31:22.037Z,97712.00
2022-11-01T07:33:51.585Z,97723.25
2022-11-01T07:36:17.858Z,97714.19
2022-11-01T07:38:44.138Z,97721.94
2022-11-01T07:41:10.493Z,97715.25
2022-11-01T07:43:37.392Z,97713.13
2022-11-01T07:46:04.480Z,97719.03
2022-11-01T07:48:30.776Z,97723.84
2022-11-01T07:50:57.180Z,97729.75
2022-11-01T07:53:23.515Z,97723.09
2022-11-01T07:55:49.851Z,97721.75
2022-11-01T07:58:16.165Z,97718.81
2022-11-01T08:00:42.705Z,97712.13
2022-11-01T08:03:09.093Z,97716.16
2022-11-01T08:05:35.353Z,97739.22
2022-11-01T08:08:01.915Z,97738.41
2022-11-01T08:10:28.462Z,97727.72
2022-11-01T08:12:54.735Z,97732.03
2022-11-01T08:15:21.063Z,97738.19
2022-11-01T08:17:47.467Z,97740.59
2022-11-01T08:20:13.779Z,97751.31
2022-11-01T08:22:40.177Z,97761.75
2022-11-01T08:25:06.603Z,97759.09
2022-11-01T08:27:34.530Z,97762.03
2022-11-01T08:30:01.843Z,97745.19
2022-11-01T08:32:28.344Z,97746.28
2022-11-01T08:34:54.750Z,97737.72
2022-11-01T08:37:21.137Z,97754.59
2022-11-01T08:39:47.980Z,97750.63
2022-11-01T08:42:14.296Z,97763.47
2022-11-01T08:44:40.654Z,97772.91
2022-11-01T08:47:07.316Z,97764.06
2022-11-01T08:49:34.399Z,97763.22
2022-11-01T08:52:01.313Z,97771.50
2022-11-01T08:54:27.639Z,97756.25
2022-11-01T08:56:54.261Z,97758.69
2022-11-01T08:59:20.612Z,97768.59
2022-11-01T09:01:46.978Z,97771.56
2022-11-01T09:04:13.410Z,97777.47
2022-11-01T09:06:39.783Z,97782.56
2022-11-01T09:09:06.155Z,97779.38
2022-11-01T09:11:32.489Z,97772.94
2022-11-01T09:13:59.139Z,97770.25
2022-11-01T09:16:25.566Z,97777.75
2022-11-01T09:18:51.814Z,97784.47
2022-11-01T09:21:18.078Z,97776.97
2022-11-01T09:23:44.331Z,97780.19
2022-11-01T09:26:10.695Z,97782.34
2022-11-01T09:28:37.849Z,97788.00
2022-11-01T09:31:19.405Z,97785.84
2022-11-01T09:33:46.802Z,97779.94
2022-11-01T09:36:13.608Z,97783.97
2022-11-01T09:38:40.017Z,97790.13
2022-11-01T09:41:07.160Z,97787.19
2022-11-01T09:43:33.994Z,97802.22
2022-11-01T09:46:00.249Z,97802.50
2022-11-01T09:48:27.319Z,97806.50
2022-11-01T09:50:54.645Z,97813.50
2022-11-01T09:53:21.030Z,97807.88
2022-11-01T09:55:47.332Z,97807.59
2022-11-01T09:58:14.279Z,97799.00
2022-11-01T10:00:40.754Z,97814.28
2022-11-01T10:03:07.144Z,97818.59
2022-11-01T10:05:34.633Z,97827.19
2022-11-01T10:08:01.414Z,97822.34
2022-11-01T10:10:32.368Z,97822.09
2022-11-01T10:13:00.494Z,97830.41
2022-11-01T10:15:26.846Z,97833.91
2022-11-01T10:17:53.379Z,97832.00
2022-11-01T10:20:19.705Z,97843.28
2022-11-01T10:22:46.129Z,97839.53
2022-11-01T10:25:15.675Z,97848.41
2022-11-01T10:27:42.086Z,97835.81
2022-11-01T10:30:08.891Z,97842.78
2022-11-01T10:32:35.203Z,97844.41
2022-11-01T10:35:01.475Z,97849.78
2022-11-01T10:37:27.778Z,97847.34
2022-11-01T10:39:56.408Z,97847.63
2022-11-01T10:42:24.194Z,97846.28
2022-11-01T10:44:50.623Z,97850.31
2022-11-01T10:47:18.262Z,97850.56
2022-11-01T10:50:04.843Z,97854.63
2022-11-01T10:52:32.118Z,97865.06
2022-11-01T10:54:58.501Z,97863.19
2022-11-01T10:57:24.789Z,97867.47
2022-11-01T10:59:51.154Z,97862.09
2022-11-01T11:02:17.588Z,97877.16
2022-11-01T11:04:43.934Z,97865.31
2022-11-01T11:07:10.233Z,97861.59
2022-11-01T11:09:36.500Z,97872.03
2022-11-01T11:12:02.844Z,97866.94
2022-11-01T11:14:29.479Z,97869.63
2022-11-01T11:16:55.722Z,97875.53
2022-11-01T11:19:22.097Z,97866.09
2022-11-01T11:21:48.586Z,97886.81
2022-11-01T11:24:14.885Z,97883.03
2022-11-01T11:29:08.466Z,97896.75
2022-11-01T11:31:34.779Z,97893.78
2022-11-01T11:34:01.110Z,97900.78
2022-11-01T11:36:27.439Z,97902.13
2022-11-01T11:38:53.731Z,97898.63
2022-11-01T11:41:20.566Z,97910.19
2022-11-01T11:43:46.841Z,97906.41
2022-11-01T11:46:13.148Z,97913.13
2022-11-01T11:48:39.954Z,97900.22
2022-11-01T11:51:06.297Z,97913.63
2022-11-01T11:53:32.557Z,97913.13
2022-11-01T11:55:58.825Z,97914.72
2022-11-01T11:58:25.180Z,97922.75
2022-11-01T12:00:51.452Z,97927.63
2022-11-01T12:03:17.928Z,97924.13
2022-11-01T12:05:44.235Z,97924.91
2022-11-01T12:08:10.653Z,97924.34
2022-11-01T12:10:37.082Z,97919.50
2022-11-01T12:13:03.729Z,97921.66
2022-11-01T12:15:30.185Z,97926.47
2022-11-01T12:17:56.516Z,97924.03
2022-11-01T12:20:22.831Z,97933.47
2022-11-01T12:22:49.160Z,97934.00
2022-11-01T12:25:15.448Z,97936.41
2022-11-01T12:27:42.123Z,97928.34
2022-11-01T12:30:08.452Z,97929.66
2022-11-01T12:32:34.835Z,97931.28
2022-11-01T12:35:01.247Z,97929.41
2022-11-01T12:37:27.636Z,97912.19
2022-11-01T12:39:53.913Z,97917.28
2022-11-01T12:42:20.169Z,97910.84
2022-11-01T12:44:46.521Z,97911.34
2022-11-01T12:47:12.822Z,97901.16
2022-11-01T12:49:39.154Z,97890.41
2022-11-01T12:54:33.481Z,97890.94
2022-11-01T12:56:59.937Z,97883.69
2022-11-01T12:59:26.207Z,97874.81
2022-11-01T13:01:52.725Z,97861.94
2022-11-01T13:04:19.108Z,97865.19
2022-11-01T13:06:45.526Z,97852.31
2022-11-01T13:09:14.948Z,97855.03
2022-11-01T13:11:41.342Z,97848.06
2022-11-01T13:14:07.630Z,97851.31
2022-11-01T13:16:33.962Z,97849.97
2022-11-01T13:19:00.224Z,97852.66
2022-11-01T13:21:26.587Z,97849.44
2022-11-01T13:23:52.853Z,97855.66
2022-11-01T13:26:19.109Z,97850.28
2022-11-01T13:28:45.390Z,97845.44
2022-11-01T13:31:11.780Z,97837.41
2022-11-01T13:33:37.972Z,97845.97
2022-11-01T13:36:04.394Z,97843.84
2022-11-01T13:38:30.729Z,97839.81
2022-11-01T13:40:57.096Z,97839.00
2022-11-01T13:43:23.457Z,97840.09
2022-11-01T13:45:49.753Z,97851.09
2022-11-01T13:48:16.157Z,97837.94
2022-11-01T13:50:43.634Z,97840.63
2022-11-01T13:53:09.928Z,97840.91
2022-11-01T13:55:36.216Z,97835.28
2022-11-01T13:58:02.686Z,97837.41
2022-11-01T14:00:29.546Z,97840.66
2022-11-01T14:02:55.862Z,97839.31
2022-11-01T14:05:22.232Z,97837.44
2022-11-01T14:07:49.101Z,97836.09
2022-11-01T14:10:15.363Z,97843.06
2022-11-01T14:12:44.961Z,97842.00
2022-11-01T14:15:14.508Z,97847.09
2022-11-01T14:17:41.184Z,97841.75
2022-11-01T14:20:07.503Z,97847.63
2022-11-01T14:22:33.883Z,97842.81
2022-11-01T14:25:00.215Z,97845.22
2022-11-01T14:27:27.480Z,97842.00
2022-11-01T14:29:53.784Z,97851.41
2022-11-01T14:32:20.069Z,97861.31
2022-11-01T14:34:46.356Z,97860.22
2022-11-01T14:37:12.787Z,97863.19
2022-11-01T14:39:39.090Z,97858.09
2022-11-01T14:42:05.497Z,97852.19
2022-11-01T14:44:31.855Z,97859.69
2022-11-01T14:46:58.133Z,97862.38
2022-11-01T14:49:24.739Z,97872.84
2022-11-01T14:51:52.917Z,97879.81
2022-11-01T14:54:19.675Z,97877.94
2022-11-01T14:56:46.297Z,97873.38
2022-11-01T14:59:12.598Z,97862.63
2022-11-01T15:01:39.687Z,97875.00
2022-11-01T15:04:06.000Z,97880.38
2022-11-01T15:06:32.260Z,97883.03
2022-11-01T15:08:59.537Z,97879.81
2022-11-01T15:11:25.817Z,97887.88
2022-11-01T15:13:52.090Z,97889.75
2022-11-01T15:16:18.448Z,97882.78
2022-11-01T15:18:44.752Z,97881.97
2022-11-01T15:21:11.104Z,97880.38
2022-11-01T15:23:38.893Z,97881.41
2022-11-01T15:26:05.227Z,97883.56
2022-11-01T15:28:31.535Z,97888.13
2022-11-01T15:30:57.901Z,97897.25
2022-11-01T15:33:25.218Z,97901.28
2022-11-01T15:35:51.570Z,97895.09
2022-11-01T15:38:20.618Z,97896.97
2022-11-01T15:40:47.534Z,97896.41
2022-11-01T15:43:13.827Z,97892.13
2022-11-01T15:45:40.239Z,97902.06
2022-11-01T15:48:06.817Z,97892.66
2022-11-01T15:50:33.120Z,97901.75
2022-11-01T15:53:01.655Z,97903.91
2022-11-01T15:55:30.296Z,97911.41
2022-11-01T15:57:56.589Z,97920.50
2022-11-01T16:00:22.917Z,97918.09
2022-11-01T16:02:49.310Z,97926.41
2022-11-01T16:05:15.608Z,97927.50
2022-11-01T16:07:43.137Z,97918.63
2022-11-01T16:10:09.520Z,97933.09
2022-11-01T16:12:35.820Z,97929.09
2022-11-01T16:15:02.612Z,97929.09
2022-11-01T16:17:29.077Z,97936.59
2022-11-01T16:19:55.372Z,97937.66
2022-11-01T16:22:21.700Z,97942.22
2022-11-01T16:24:48.128Z,97936.03
2022-11-01T16:27:14.491Z,97942.47
2022-11-01T16:29:41.248Z,97939.25
2022-11-01T16:32:09.995Z,97941.38
2022-11-01T16:34:36.632Z,97946.19
2022-11-01T16:37:03.097Z,97952.66
2022-11-01T16:39:29.592Z,97952.91
2022-11-01T16:41:55.847Z,97953.19
2022-11-01T16:44:22.139Z,97958.00
2022-11-01T16:46:48.433Z,97962.53
2022-11-01T16:49:14.744Z,97970.03
2022-11-01T16:51:41.114Z,97972.16
2022-11-01T16:54:07.402Z,97969.75
2022-11-01T16:56:37.112Z,97974.56
2022-11-01T16:59:03.654Z,97976.69
2022-11-01T17:01:35.131Z,97977.75
2022-11-01T17:04:02.049Z,97974.53
2022-11-01T17:06:28.355Z,97976.66
2022-11-01T17:08:54.630Z,97983.09
2022-11-01T17:11:21.158Z,97983.38
2022-11-01T17:13:47.562Z,97988.19
2022-11-01T17:16:13.825Z,97991.13
2022-11-01T17:18:40.073Z,97992.16
2022-11-01T17:21:07.137Z,97985.19
2022-11-01T17:23:33.533Z,97988.41
2022-11-01T17:25:59.789Z,97989.47
2022-11-01T17:28:26.037Z,97995.09
2022-11-01T17:30:52.355Z,97987.31
2022-11-01T17:33:18.775Z,97989.44
2022-11-01T17:35:45.136Z,97985.16
2022-11-01T17:38:11.483Z,97989.97
2022-11-01T17:40:37.882Z,97994.50
2022-11-01T17:43:04.115Z,97990.47
2022-11-01T17:45:31.670Z,97994.22
2022-11-01T17:47:58.528Z,97989.13
2022-11-01T17:50:24.823Z,97995.56
2022-11-01T17:52:52.256Z,97998.47
2022-11-01T17:55:18.642Z,98005.72
2022-11-01T17:57:44.972Z,98012.13
2022-11-01T18:00:11.324Z,98008.84
2022-11-01T18:02:37.616Z,98007.25
2022-11-01T18:05:03.924Z,98004.84
2022-11-01T18:07:30.368Z,98012.06
2022-11-01T18:09:56.664Z,98010.72
2022-11-01T18:12:22.908Z,98003.72
2022-11-01T18:14:49.289Z,98006.66
2022-11-01T18:17:15.860Z,97992.72
2022-11-01T18:19:42.803Z,98005.31
2022-11-01T18:22:09.073Z,98000.19
2022-11-01T18:24:35.424Z,98006.38
2022-11-01T18:27:01.873Z,98012.25
2022-11-01T18:29:28.146Z,98017.88
2022-11-01T18:31:54.499Z,98013.56
2022-11-01T18:34:20.899Z,98022.66
2022-11-01T18:36:48.427Z,98017.31
2022-11-01T18:39:17.770Z,98020.25
2022-11-01T18:41:44.113Z,98008.16
2022-11-01T18:44:10.540Z,97999.56
2022-11-01T18:46:37.760Z,98010.03
2022-11-01T18:49:04.012Z,98011.16
2022-11-01T18:51:30.408Z,98024.34
2022-11-01T18:53:56.810Z,98031.72
2022-11-01T18:56:25.951Z,98038.00
2022-11-01T18:58:52.518Z,98042.66
2022-11-01T19:01:18.933Z,98048.63
2022-11-01T19:03:45.341Z,98055.38
2022-11-01T19:06:11.688Z,98051.97
2022-11-01T19:08:38.178Z,98056.34
2022-11-01T19:11:04.657Z,98061.75
2022-11-01T19:13:31.274Z,98069.84
2022-11-01T19:15:58.185Z,98069.88
2022-11-01T19:18:24.485Z,98076.34
2022-11-01T19:20:50.817Z,98073.13
2022-11-01T19:23:17.391Z,98073.69
2022-11-01T19:25:43.710Z,98075.31
2022-11-01T19:28:10.135Z,98077.22
2022-11-01T19:30:36.464Z,98075.84
2022-11-01T19:33:02.890Z,98078.06
2022-11-01T19:35:29.163Z,98089.63
2022-11-01T19:37:55.482Z,98089.34
2022-11-01T19:40:26.573Z,98091.50
2022-11-01T19:42:55.422Z,98090.44
2022-11-01T19:45:21.783Z,98084.25
2022-11-01T19:47:49.149Z,98090.44
2022-11-01T19:50:15.495Z,98079.97
2022-11-01T19:52:46.870Z,98080.50
2022-11-01T19:55:13.975Z,98088.03
2022-11-01T19:57:43.971Z,98091.53
2022-11-01T20:00:11.736Z,98092.59
2022-11-01T20:02:39.300Z,98100.41
2022-11-01T20:05:06.066Z,98100.13
2022-11-01T20:07:32.493Z,98092.06
2022-11-01T20:09:59.065Z,98102.25
2022-11-01T20:12:25.401Z,98090.97
2022-11-01T20:14:51.674Z,98101.22
2022-11-01T20:17:19.028Z,98102.81
2022-11-01T20:19:45.303Z,98102.28
2022-11-01T20:22:11.635Z,98098.50
2022-11-01T20:24:38.700Z,98097.19
2022-11-01T20:27:05.116Z,98099.59
2022-11-01T20:29:31.468Z,98096.91
2022-11-01T20:31:57.853Z,98092.31
2022-11-01T20:34:25.207Z,98100.38
2022-11-01T20:37:15.090Z,98103.88
2022-11-01T20:39:38.682Z,98103.34
2022-11-01T20:42:05.255Z,98113.00
2022-11-01T20:44:31.575Z,98109.47
2022-11-01T20:46:58.226Z,98114.59
2022-11-01T20:49:24.487Z,98117.22
2022-11-01T20:51:50.769Z,98126.88
2022-11-01T20:54:18.168Z,98126.84
2022-11-01T20:56:44.585Z,98131.41
2022-11-01T20:59:12.932Z,98130.34
2022-11-01T21:01:41.214Z,98130.06
2022-11-01T21:04:07.600Z,98128.97
2022-11-01T21:06:34.247Z,98124.13
2022-11-01T21:09:00.611Z,98132.16
2022-11-01T21:11:27.199Z,98125.69
2022-11-01T21:13:53.668Z,98122.72
2022-11-01T21:16:20.037Z,98117.34
2022-11-01T21:18:46.402Z,98116.25
2022-11-01T21:21:12.673Z,98119.72
2022-11-01T21:23:38.979Z,98125.84
2022-11-01T21:26:05.682Z,98128.25
2022-11-01T21:28:31.980Z,98130.91
2022-11-01T21:30:58.282Z,98125.53
2022-11-01T21:33:24.695Z,98125.19
2022-11-01T21:35:51.342Z,98124.09
2022-11-01T21:38:20.817Z,98125.44
2022-11-01T21:40:47.195Z,98121.66
2022-11-01T21:43:14.203Z,98130.47
2022-11-01T21:45:40.504Z,98114.09
2022-11-01T21:48:07.320Z,98126.94
2022-11-01T21:50:34.036Z,98121.31
2022-11-01T21:53:00.617Z,98119.94
2022-11-01T21:55:26.987Z,98121.53
2022-11-01T21:57:53.357Z,98111.31
2022-11-01T22:00:19.695Z,98105.66
2022-11-01T22:02:46.166Z,98097.09
2022-11-01T22:05:12.497Z,98095.97
2022-11-01T22:07:38.804Z,98098.09
2022-11-01T22:10:05.057Z,98092.19
2022-11-01T22:12:31.364Z,98089.22
2022-11-01T22:14:57.633Z,98090.53
2022-11-01T22:17:24.192Z,98083.81
2022-11-01T22:19:51.011Z,98094.78
2022-11-01T22:22:17.301Z,98097.19
2022-11-01T22:24:43.679Z,98096.63
2022-11-01T22:27:09.996Z,98097.97
2022-11-01T22:29:36.409Z,98093.59
2022-11-01T22:32:03.347Z,98083.88
2022-11-01T22:34:29.733Z,98087.84
2022-11-01T22:36:56.086Z,98079.22
2022-11-01T22:39:22.401Z,98083.97
2022-11-01T22:41:48.737Z,98086.06
2022-11-01T22:44:15.008Z,98089.47
2022-11-01T22:46:41.389Z,98084.31
2022-11-01T22:49:07.775Z,98078.09
2022-11-01T22:51:34.206Z,98079.97
2022-11-01T22:54:01.666Z,98064.88
2022-11-01T22:56:28.191Z,98060.31
2022-11-01T22:58:54.484Z,98056.50
2022-11-01T23:01:25.851Z,98050.28
2022-11-01T23:03:56.420Z,98051.31
2022-11-01T23:06:22.701Z,98059.22
2022-11-01T23:08:49.092Z,98052.78
2022-11-01T23:11:15.510Z,98055.41
2022-11-01T23:13:42.396Z,98049.75
2022-11-01T23:16:08.768Z,98052.34
2022-11-01T23:18:35.236Z,98058.44
2022-11-01T23:21:01.575Z,98060.25
2022-11-01T23:23:28.002Z,98052.97
2022-11-01T23:25:54.410Z,98049.19
2022-11-01T23:28:20.679Z,98042.72
2022-11-01T23:30:46.993Z,98039.97
2022-11-01T23:33:13.305Z,98038.06
2022-11-01T23:35:40.473Z,98034.25
2022-11-01T23:38:06.821Z,98037.69
2022-11-01T23:40:33.107Z,98023.19
2022-11-01T23:42:59.470Z,98025.78
2022-11-01T23:45:25.803Z,98023.88
2022-11-01T23:47:52.076Z,98023.56
2022-11-01T23:50:18.410Z,98024.84
2022-11-01T23:52:44.710Z,98025.59
2022-11-01T23:55:11.019Z,98019.09
2022-11-01T23:57:37.346Z,98022.28
